sensor_id;sensor_type;location;lat;lon;timestamp;temperature;humidity
8269;DHT22;4174;48.304;16.364;2023-10-13T00:03:17;18.40;99.90
8269;DHT22;4174;48.304;16.364;2023-10-13T00:09:21;18.30;99.90
8269;DHT22;4174;48.304;16.364;2023-10-13T00:15:24;18.40;99.90
8269;DHT22;4174;48.304;16.364;2023-10-13T00:21:27;18.40;99.90
8269;DHT22;4174;48.304;16.364;2023-10-13T00:27:34;18.10;99.90
8269;DHT22;4174;48.304;16.364;2023-10-13T00:33:38;18.20;99.90
8269;DHT22;4174;48.304;16.364;2023-10-13T00:39:41;18.40;99.90
8269;DHT22;4174;48.304;16.364;2023-10-13T00:45:51;18.40;99.90
8269;DHT22;4174;48.304;16.364;2023-10-13T00:51:57;18.50;99.90
8269;DHT22;4174;48.304;16.364;2023-10-13T00:57:59;18.60;99.90
8269;DHT22;4174;48.304;16.364;2023-10-13T01:04:05;18.10;99.90
8269;DHT22;4174;48.304;16.364;2023-10-13T01:10:09;18.10;99.90
8269;DHT22;4174;48.304;16.364;2023-10-13T01:16:14;18.40;99.90
8269;DHT22;4174;48.304;16.364;2023-10-13T01:22:17;18.60;99.90
8269;DHT22;4174;48.304;16.364;2023-10-13T01:28:21;18.50;99.90
8269;DHT22;4174;48.304;16.364;2023-10-13T01:34:24;18.50;99.90
8269;DHT22;4174;48.304;16.364;2023-10-13T01:40:28;18.50;99.90
8269;DHT22;4174;48.304;16.364;2023-10-13T01:46:32;18.60;99.90
8269;DHT22;4174;48.304;16.364;2023-10-13T01:52:35;18.70;99.90
8269;DHT22;4174;48.304;16.364;2023-10-13T01:58:40;18.70;99.90
8269;DHT22;4174;48.304;16.364;2023-10-13T02:04:44;18.70;99.90
8269;DHT22;4174;48.304;16.364;2023-10-13T02:10:51;18.80;99.90
8269;DHT22;4174;48.304;16.364;2023-10-13T02:16:54;18.70;99.90
8269;DHT22;4174;48.304;16.364;2023-10-13T02:22:58;18.70;99.90
8269;DHT22;4174;48.304;16.364;2023-10-13T02:29:00;18.70;99.90
8269;DHT22;4174;48.304;16.364;2023-10-13T02:35:04;18.70;99.90
8269;DHT22;4174;48.304;16.364;2023-10-13T02:41:11;18.70;99.90
8269;DHT22;4174;48.304;16.364;2023-10-13T02:47:14;18.70;99.90
8269;DHT22;4174;48.304;16.364;2023-10-13T02:53:18;18.70;99.90
8269;DHT22;4174;48.304;16.364;2023-10-13T02:59:21;18.50;99.90
8269;DHT22;4174;48.304;16.364;2023-10-13T03:05:24;18.50;99.90
8269;DHT22;4174;48.304;16.364;2023-10-13T03:11:27;18.30;99.90
8269;DHT22;4174;48.304;16.364;2023-10-13T03:17:32;18.20;99.90
8269;DHT22;4174;48.304;16.364;2023-10-13T03:23:36;18.30;99.90
8269;DHT22;4174;48.304;16.364;2023-10-13T03:29:40;18.20;99.90
8269;DHT22;4174;48.304;16.364;2023-10-13T03:35:43;18.30;99.90
8269;DHT22;4174;48.304;16.364;2023-10-13T03:41:46;18.40;99.90
8269;DHT22;4174;48.304;16.364;2023-10-13T03:47:50;18.30;99.90
8269;DHT22;4174;48.304;16.364;2023-10-13T03:53:54;18.20;99.90
8269;DHT22;4174;48.304;16.364;2023-10-13T03:59:57;18.10;99.90
8269;DHT22;4174;48.304;16.364;2023-10-13T04:06:01;18.20;99.90
8269;DHT22;4174;48.304;16.364;2023-10-13T04:12:05;18.10;99.90
8269;DHT22;4174;48.304;16.364;2023-10-13T04:18:22;18.10;99.90
8269;DHT22;4174;48.304;16.364;2023-10-13T04:24:33;18.20;99.90
8269;DHT22;4174;48.304;16.364;2023-10-13T04:30:52;18.20;99.90
8269;DHT22;4174;48.304;16.364;2023-10-13T04:37:06;18.20;99.90
8269;DHT22;4174;48.304;16.364;2023-10-13T04:43:13;18.00;99.90
8269;DHT22;4174;48.304;16.364;2023-10-13T04:49:20;18.00;99.90
8269;DHT22;4174;48.304;16.364;2023-10-13T04:55:27;17.90;99.90
8269;DHT22;4174;48.304;16.364;2023-10-13T05:01:50;18.10;99.90
8269;DHT22;4174;48.304;16.364;2023-10-13T05:08:06;18.10;99.90
8269;DHT22;4174;48.304;16.364;2023-10-13T05:14:16;18.10;99.90
8269;DHT22;4174;48.304;16.364;2023-10-13T05:20:36;18.20;99.90
8269;DHT22;4174;48.304;16.364;2023-10-13T05:26:45;18.20;99.90
8269;DHT22;4174;48.304;16.364;2023-10-13T05:33:08;18.20;99.90
8269;DHT22;4174;48.304;16.364;2023-10-13T05:39:17;18.30;99.90
8269;DHT22;4174;48.304;16.364;2023-10-13T05:45:26;18.30;99.90
8269;DHT22;4174;48.304;16.364;2023-10-13T05:51:35;18.30;99.90
8269;DHT22;4174;48.304;16.364;2023-10-13T05:57:52;18.30;99.90
8269;DHT22;4174;48.304;16.364;2023-10-13T06:04:01;18.30;99.90
8269;DHT22;4174;48.304;16.364;2023-10-13T06:10:25;18.40;99.90
8269;DHT22;4174;48.304;16.364;2023-10-13T06:16:34;18.40;99.90
8269;DHT22;4174;48.304;16.364;2023-10-13T06:22:46;18.40;99.90
8269;DHT22;4174;48.304;16.364;2023-10-13T06:28:51;18.40;99.90
8269;DHT22;4174;48.304;16.364;2023-10-13T06:34:55;18.50;99.90
8269;DHT22;4174;48.304;16.364;2023-10-13T06:41:02;18.60;99.90
8269;DHT22;4174;48.304;16.364;2023-10-13T06:47:07;18.60;99.90
8269;DHT22;4174;48.304;16.364;2023-10-13T06:53:10;18.80;99.90
8269;DHT22;4174;48.304;16.364;2023-10-13T06:59:14;19.20;99.90
8269;DHT22;4174;48.304;16.364;2023-10-13T07:05:18;19.80;99.90
8269;DHT22;4174;48.304;16.364;2023-10-13T07:11:25;20.80;99.90
8269;DHT22;4174;48.304;16.364;2023-10-13T07:17:32;20.70;99.90
8269;DHT22;4174;48.304;16.364;2023-10-13T07:23:36;21.10;99.90
8269;DHT22;4174;48.304;16.364;2023-10-13T07:29:39;21.50;99.90
8269;DHT22;4174;48.304;16.364;2023-10-13T07:35:42;21.80;99.90
8269;DHT22;4174;48.304;16.364;2023-10-13T07:41:48;22.90;99.90
8269;DHT22;4174;48.304;16.364;2023-10-13T07:47:51;22.80;99.90
8269;DHT22;4174;48.304;16.364;2023-10-13T07:53:54;23.40;99.90
8269;DHT22;4174;48.304;16.364;2023-10-13T07:59:58;24.10;99.90
8269;DHT22;4174;48.304;16.364;2023-10-13T08:06:06;25.20;99.90
8269;DHT22;4174;48.304;16.364;2023-10-13T08:12:26;26.60;99.90
8269;DHT22;4174;48.304;16.364;2023-10-13T08:18:30;27.70;99.90
8269;DHT22;4174;48.304;16.364;2023-10-13T08:24:34;28.60;99.90
8269;DHT22;4174;48.304;16.364;2023-10-13T08:30:54;29.70;99.90
8269;DHT22;4174;48.304;16.364;2023-10-13T08:36:58;31.90;96.80
8269;DHT22;4174;48.304;16.364;2023-10-13T08:43:01;31.90;96.80
8269;DHT22;4174;48.304;16.364;2023-10-13T08:49:12;32.20;90.00
8269;DHT22;4174;48.304;16.364;2023-10-13T08:55:15;32.00;84.20
8269;DHT22;4174;48.304;16.364;2023-10-13T09:01:26;32.50;72.90
8269;DHT22;4174;48.304;16.364;2023-10-13T09:07:34;32.50;72.90
8269;DHT22;4174;48.304;16.364;2023-10-13T09:13:36;32.40;75.00
8269;DHT22;4174;48.304;16.364;2023-10-13T09:19:45;32.80;69.90
8269;DHT22;4174;48.304;16.364;2023-10-13T09:25:50;32.40;59.20
8269;DHT22;4174;48.304;16.364;2023-10-13T09:32:01;32.50;62.00
8269;DHT22;4174;48.304;16.364;2023-10-13T09:38:03;32.10;61.60
8269;DHT22;4174;48.304;16.364;2023-10-13T09:44:07;31.90;58.50
8269;DHT22;4174;48.304;16.364;2023-10-13T09:50:10;32.60;60.90
8269;DHT22;4174;48.304;16.364;2023-10-13T09:56:18;33.50;58.80
8269;DHT22;4174;48.304;16.364;2023-10-13T10:02:21;33.90;55.00
8269;DHT22;4174;48.304;16.364;2023-10-13T10:08:27;33.50;51.80
8269;DHT22;4174;48.304;16.364;2023-10-13T10:15:06;32.60;57.80
8269;DHT22;4174;48.304;16.364;2023-10-13T10:21:13;32.60;59.00
8269;DHT22;4174;48.304;16.364;2023-10-13T10:27:27;31.50;55.80
8269;DHT22;4174;48.304;16.364;2023-10-13T10:33:30;31.50;55.90
8269;DHT22;4174;48.304;16.364;2023-10-13T10:39:34;31.50;56.80
8269;DHT22;4174;48.304;16.364;2023-10-13T10:45:36;32.30;57.30
8269;DHT22;4174;48.304;16.364;2023-10-13T10:51:41;32.60;57.30
8269;DHT22;4174;48.304;16.364;2023-10-13T10:57:44;32.90;53.40
8269;DHT22;4174;48.304;16.364;2023-10-13T11:03:54;32.90;53.40
8269;DHT22;4174;48.304;16.364;2023-10-13T11:09:56;33.60;51.10
8269;DHT22;4174;48.304;16.364;2023-10-13T11:16:08;34.00;54.70
8269;DHT22;4174;48.304;16.364;2023-10-13T11:22:21;34.20;51.20
8269;DHT22;4174;48.304;16.364;2023-10-13T11:28:29;34.20;46.50
8269;DHT22;4174;48.304;16.364;2023-10-13T11:34:32;34.20;46.30
8269;DHT22;4174;48.304;16.364;2023-10-13T11:40:46;34.50;49.90
8269;DHT22;4174;48.304;16.364;2023-10-13T11:46:55;34.50;50.00
8269;DHT22;4174;48.304;16.364;2023-10-13T11:52:58;34.00;49.00
8269;DHT22;4174;48.304;16.364;2023-10-13T11:59:00;33.20;50.00
8269;DHT22;4174;48.304;16.364;2023-10-13T12:05:04;31.50;48.10
8269;DHT22;4174;48.304;16.364;2023-10-13T12:11:08;31.30;51.90
8269;DHT22;4174;48.304;16.364;2023-10-13T12:17:28;32.10;52.30
8269;DHT22;4174;48.304;16.364;2023-10-13T12:23:31;31.60;47.20
8269;DHT22;4174;48.304;16.364;2023-10-13T12:29:34;31.50;46.90
8269;DHT22;4174;48.304;16.364;2023-10-13T12:35:39;32.20;50.80
8269;DHT22;4174;48.304;16.364;2023-10-13T12:41:47;31.30;47.30
8269;DHT22;4174;48.304;16.364;2023-10-13T12:47:56;31.10;48.10
8269;DHT22;4174;48.304;16.364;2023-10-13T12:54:07;31.50;48.70
8269;DHT22;4174;48.304;16.364;2023-10-13T13:00:14;31.50;52.10
8269;DHT22;4174;48.304;16.364;2023-10-13T13:06:19;31.50;52.00
8269;DHT22;4174;48.304;16.364;2023-10-13T13:12:24;31.10;48.20
8269;DHT22;4174;48.304;16.364;2023-10-13T13:18:27;30.60;49.30
8269;DHT22;4174;48.304;16.364;2023-10-13T13:24:31;30.20;52.10
8269;DHT22;4174;48.304;16.364;2023-10-13T13:30:36;30.40;56.60
8269;DHT22;4174;48.304;16.364;2023-10-13T13:36:39;30.40;57.20
8269;DHT22;4174;48.304;16.364;2023-10-13T13:42:42;30.50;56.90
8269;DHT22;4174;48.304;16.364;2023-10-13T13:48:45;30.10;57.30
8269;DHT22;4174;48.304;16.364;2023-10-13T13:54:48;29.40;55.80
8269;DHT22;4174;48.304;16.364;2023-10-13T14:00:51;29.60;59.30
8269;DHT22;4174;48.304;16.364;2023-10-13T14:06:55;29.70;61.90
8269;DHT22;4174;48.304;16.364;2023-10-13T14:13:00;29.30;57.70
8269;DHT22;4174;48.304;16.364;2023-10-13T14:19:14;28.70;59.60
8269;DHT22;4174;48.304;16.364;2023-10-13T14:25:17;28.30;58.40
8269;DHT22;4174;48.304;16.364;2023-10-13T14:31:20;28.40;59.60
8269;DHT22;4174;48.304;16.364;2023-10-13T14:37:24;27.70;61.00
8269;DHT22;4174;48.304;16.364;2023-10-13T14:43:29;27.50;60.90
8269;DHT22;4174;48.304;16.364;2023-10-13T14:49:32;27.40;63.70
8269;DHT22;4174;48.304;16.364;2023-10-13T14:55:36;26.90;64.70
8269;DHT22;4174;48.304;16.364;2023-10-13T15:01:41;26.90;65.20
8269;DHT22;4174;48.304;16.364;2023-10-13T15:07:44;27.10;65.10
8269;DHT22;4174;48.304;16.364;2023-10-13T15:13:48;27.00;65.40
8269;DHT22;4174;48.304;16.364;2023-10-13T15:19:51;26.70;67.00
8269;DHT22;4174;48.304;16.364;2023-10-13T15:25:55;26.30;67.90
8269;DHT22;4174;48.304;16.364;2023-10-13T15:31:58;26.10;69.50
8269;DHT22;4174;48.304;16.364;2023-10-13T15:38:16;25.90;71.80
8269;DHT22;4174;48.304;16.364;2023-10-13T15:44:20;25.60;74.40
8269;DHT22;4174;48.304;16.364;2023-10-13T15:50:23;25.30;75.90
8269;DHT22;4174;48.304;16.364;2023-10-13T15:56:26;25.00;77.90
8269;DHT22;4174;48.304;16.364;2023-10-13T16:02:30;24.90;79.50
8269;DHT22;4174;48.304;16.364;2023-10-13T16:08:34;24.40;81.90
8269;DHT22;4174;48.304;16.364;2023-10-13T16:14:37;24.20;85.10
8269;DHT22;4174;48.304;16.364;2023-10-13T16:20:40;24.00;86.60
8269;DHT22;4174;48.304;16.364;2023-10-13T16:26:46;23.80;88.10
8269;DHT22;4174;48.304;16.364;2023-10-13T16:32:51;23.50;90.40
8269;DHT22;4174;48.304;16.364;2023-10-13T16:38:55;23.50;90.50
8269;DHT22;4174;48.304;16.364;2023-10-13T16:44:58;23.30;91.30
8269;DHT22;4174;48.304;16.364;2023-10-13T16:51:00;23.00;92.50
8269;DHT22;4174;48.304;16.364;2023-10-13T16:57:04;22.90;92.70
8269;DHT22;4174;48.304;16.364;2023-10-13T17:03:07;23.20;93.10
8269;DHT22;4174;48.304;16.364;2023-10-13T17:09:10;23.20;92.60
8269;DHT22;4174;48.304;16.364;2023-10-13T17:15:14;23.00;92.60
8269;DHT22;4174;48.304;16.364;2023-10-13T17:21:23;23.00;93.60
8269;DHT22;4174;48.304;16.364;2023-10-13T17:27:27;22.90;93.50
8269;DHT22;4174;48.304;16.364;2023-10-13T17:33:31;22.90;93.60
8269;DHT22;4174;48.304;16.364;2023-10-13T17:39:35;22.70;93.80
8269;DHT22;4174;48.304;16.364;2023-10-13T17:45:38;22.70;94.30
8269;DHT22;4174;48.304;16.364;2023-10-13T17:51:42;22.70;94.50
8269;DHT22;4174;48.304;16.364;2023-10-13T17:57:45;22.80;94.70
8269;DHT22;4174;48.304;16.364;2023-10-13T18:03:50;22.60;95.30
8269;DHT22;4174;48.304;16.364;2023-10-13T18:09:52;22.40;96.00
8269;DHT22;4174;48.304;16.364;2023-10-13T18:15:56;22.20;97.10
8269;DHT22;4174;48.304;16.364;2023-10-13T18:21:59;22.10;98.10
8269;DHT22;4174;48.304;16.364;2023-10-13T18:28:03;22.00;99.10
8269;DHT22;4174;48.304;16.364;2023-10-13T18:34:07;21.90;99.90
8269;DHT22;4174;48.304;16.364;2023-10-13T18:40:12;21.60;99.90
8269;DHT22;4174;48.304;16.364;2023-10-13T18:46:15;21.50;99.90
8269;DHT22;4174;48.304;16.364;2023-10-13T18:52:18;21.50;99.90
8269;DHT22;4174;48.304;16.364;2023-10-13T18:58:21;21.50;99.90
8269;DHT22;4174;48.304;16.364;2023-10-13T19:04:25;21.20;99.90
8269;DHT22;4174;48.304;16.364;2023-10-13T19:10:29;20.90;99.90
8269;DHT22;4174;48.304;16.364;2023-10-13T19:16:32;20.90;99.90
8269;DHT22;4174;48.304;16.364;2023-10-13T19:22:36;20.80;99.90
8269;DHT22;4174;48.304;16.364;2023-10-13T19:28:40;20.20;99.90
8269;DHT22;4174;48.304;16.364;2023-10-13T19:34:44;20.20;99.90
8269;DHT22;4174;48.304;16.364;2023-10-13T19:40:48;20.20;99.90
8269;DHT22;4174;48.304;16.364;2023-10-13T19:46:51;20.10;99.90
8269;DHT22;4174;48.304;16.364;2023-10-13T19:52:55;20.00;99.90
8269;DHT22;4174;48.304;16.364;2023-10-13T19:58:58;20.00;99.90
8269;DHT22;4174;48.304;16.364;2023-10-13T20:05:01;19.90;99.90
8269;DHT22;4174;48.304;16.364;2023-10-13T20:11:05;19.80;99.90
8269;DHT22;4174;48.304;16.364;2023-10-13T20:17:09;19.50;99.90
8269;DHT22;4174;48.304;16.364;2023-10-13T20:23:12;19.30;99.90
8269;DHT22;4174;48.304;16.364;2023-10-13T20:29:15;19.00;99.90
8269;DHT22;4174;48.304;16.364;2023-10-13T20:35:19;18.90;99.90
8269;DHT22;4174;48.304;16.364;2023-10-13T20:41:25;19.00;99.90
8269;DHT22;4174;48.304;16.364;2023-10-13T20:47:28;18.90;99.90
8269;DHT22;4174;48.304;16.364;2023-10-13T20:53:32;18.80;99.90
8269;DHT22;4174;48.304;16.364;2023-10-13T20:59:35;18.60;99.90
8269;DHT22;4174;48.304;16.364;2023-10-13T21:05:45;18.60;99.90
8269;DHT22;4174;48.304;16.364;2023-10-13T21:11:43;18.70;99.90
8269;DHT22;4174;48.304;16.364;2023-10-13T21:17:48;18.60;99.90
8269;DHT22;4174;48.304;16.364;2023-10-13T21:23:52;18.60;99.90
8269;DHT22;4174;48.304;16.364;2023-10-13T21:29:54;18.40;99.90
8269;DHT22;4174;48.304;16.364;2023-10-13T21:36:04;18.20;99.90
8269;DHT22;4174;48.304;16.364;2023-10-13T21:42:01;18.20;99.90
8269;DHT22;4174;48.304;16.364;2023-10-13T21:48:04;18.00;99.90
8269;DHT22;4174;48.304;16.364;2023-10-13T21:54:08;18.00;99.90
8269;DHT22;4174;48.304;16.364;2023-10-13T22:00:14;17.90;99.90
8269;DHT22;4174;48.304;16.364;2023-10-13T22:06:22;18.00;99.90
8269;DHT22;4174;48.304;16.364;2023-10-13T22:12:26;17.90;99.90
8269;DHT22;4174;48.304;16.364;2023-10-13T22:18:29;17.90;99.90
8269;DHT22;4174;48.304;16.364;2023-10-13T22:24:34;17.90;99.90
8269;DHT22;4174;48.304;16.364;2023-10-13T22:30:37;17.80;99.90
8269;DHT22;4174;48.304;16.364;2023-10-13T22:36:42;18.00;99.90
8269;DHT22;4174;48.304;16.364;2023-10-13T22:42:46;17.90;99.90
8269;DHT22;4174;48.304;16.364;2023-10-13T22:48:49;18.00;99.90
8269;DHT22;4174;48.304;16.364;2023-10-13T22:54:52;17.90;99.90
8269;DHT22;4174;48.304;16.364;2023-10-13T23:00:56;17.60;99.90
8269;DHT22;4174;48.304;16.364;2023-10-13T23:07:01;17.30;99.90
8269;DHT22;4174;48.304;16.364;2023-10-13T23:13:05;17.50;99.90
8269;DHT22;4174;48.304;16.364;2023-10-13T23:19:08;17.40;99.90
8269;DHT22;4174;48.304;16.364;2023-10-13T23:25:13;17.30;99.90
8269;DHT22;4174;48.304;16.364;2023-10-13T23:31:17;17.20;99.90
8269;DHT22;4174;48.304;16.364;2023-10-13T23:37:21;17.20;99.90
8269;DHT22;4174;48.304;16.364;2023-10-13T23:43:24;17.30;99.90
8269;DHT22;4174;48.304;16.364;2023-10-13T23:49:27;17.20;99.90
8269;DHT22;4174;48.304;16.364;2023-10-13T23:55:30;17.10;99.90
